Time;durP1;ratioP1;P1;durP2;ratioP2;P2;SDS_P1;SDS_P2;PMS_P1;PMS_P2;Temp;Humidity;BMP_temperature;BMP_pressure;BME280_temperature;BME280_humidity;BME280_pressure;Samples;Min_cycle;Max_cycle;Signal;HPM_P1;HPM_P2
2021/10/17 00:01:36;;;;;;;14.15;1.67;;;;;;;;;;4995720;28;20038;-80
2021/10/17 00:04:01;;;;;;;1.40;1.13;;;;;;;;;;5013295;28;20026;-81
2021/10/17 00:06:28;;;;;;;2.95;1.88;;;;;;;;;;5013515;28;20044;-80
2021/10/17 00:08:54;;;;;;;1.00;1.00;;;;;;;;;;5013246;28;20061;-80
2021/10/17 00:11:19;;;;;;;0.95;0.93;;;;;;;;;;5013273;28;20038;-80
2021/10/17 00:13:45;;;;;;;0.90;0.73;;;;;;;;;;5013479;28;20112;-80
2021/10/17 00:16:10;;;;;;;0.10;0.10;;;;;;;;;;5013202;28;20497;-80
2021/10/17 00:18:35;;;;;;;1.08;0.65;;;;;;;;;;5012847;28;20021;-80
2021/10/17 00:21:01;;;;;;;0.15;0.15;;;;;;;;;;5013171;28;20028;-80
2021/10/17 00:23:26;;;;;;;0.20;0.20;;;;;;;;;;5013214;28;20056;-80
2021/10/17 00:25:51;;;;;;;0.10;0.10;;;;;;;;;;5013052;28;20032;-80
2021/10/17 00:28:17;;;;;;;1.23;1.15;;;;;;;;;;5013136;28;20102;-80
2021/10/17 00:30:42;;;;;;;0.10;0.10;;;;;;;;;;5012616;28;20034;-80
2021/10/17 00:33:08;;;;;;;0.70;0.70;;;;;;;;;;5012774;28;20018;-80
2021/10/17 00:35:33;;;;;;;1.15;1.10;;;;;;;;;;5013113;28;20109;-80
2021/10/17 00:37:59;;;;;;;0.47;0.43;;;;;;;;;;5012480;28;20124;-81
2021/10/17 00:40:24;;;;;;;2.17;2.00;;;;;;;;;;5012907;28;20030;-80
2021/10/17 00:42:49;;;;;;;0.77;0.77;;;;;;;;;;5012883;28;20014;-80
2021/10/17 00:45:16;;;;;;;2.75;1.00;;;;;;;;;;5012775;28;20375;-80
2021/10/17 00:47:42;;;;;;;1.55;1.45;;;;;;;;;;5012635;28;20358;-80
2021/10/17 00:50:08;;;;;;;0.40;0.40;;;;;;;;;;5012874;28;20084;-80
2021/10/17 00:52:34;;;;;;;0.30;0.30;;;;;;;;;;5012895;28;20026;-81
2021/10/17 00:54:59;;;;;;;1.33;1.23;;;;;;;;;;5014801;28;20064;-82
2021/10/17 00:57:24;;;;;;;0.10;0.10;;;;;;;;;;5016721;28;20021;-80
2021/10/17 00:59:49;;;;;;;1.75;1.65;;;;;;;;;;5016722;28;20474;-80
2021/10/17 01:02:15;;;;;;;1.08;0.85;;;;;;;;;;5016652;28;20022;-80
2021/10/17 01:04:41;;;;;;;0.00;0.00;;;;;;;;;;5016690;28;20485;-80
2021/10/17 01:07:07;;;;;;;0.95;0.88;;;;;;;;;;5016575;28;20030;-80
2021/10/17 01:09:34;;;;;;;1.65;0.77;;;;;;;;;;5016519;28;20030;-80
2021/10/17 01:11:59;;;;;;;0.22;0.22;;;;;;;;;;5016125;28;20411;-83
2021/10/17 01:14:24;;;;;;;0.95;0.88;;;;;;;;;;5016370;28;20037;-81
2021/10/17 01:16:50;;;;;;;2.13;1.02;;;;;;;;;;5016242;28;20030;-80
2021/10/17 01:19:16;;;;;;;0.45;0.45;;;;;;;;;;5016031;28;20022;-80
2021/10/17 01:21:42;;;;;;;1.25;1.17;;;;;;;;;;5016384;28;20034;-80
2021/10/17 01:24:08;;;;;;;0.65;0.65;;;;;;;;;;4998674;28;20377;-80
2021/10/17 01:26:33;;;;;;;1.30;1.20;;;;;;;;;;5016187;28;20032;-80
2021/10/17 01:28:59;;;;;;;2.65;0.93;;;;;;;;;;5016221;28;20030;-80
2021/10/17 01:31:34;;;;;;;0.93;0.90;;;;;;;;;;5015800;28;20073;-80
2021/10/17 01:33:59;;;;;;;1.23;1.13;;;;;;;;;;5016155;28;20038;-80
2021/10/17 01:36:25;;;;;;;0.85;0.82;;;;;;;;;;5016064;28;20521;-80
2021/10/17 01:38:50;;;;;;;0.70;0.70;;;;;;;;;;5016122;28;20518;-80
2021/10/17 01:41:15;;;;;;;0.60;0.60;;;;;;;;;;5015724;28;20026;-80
2021/10/17 01:43:41;;;;;;;1.42;1.33;;;;;;;;;;5015886;28;20381;-80
2021/10/17 01:46:06;;;;;;;0.65;0.65;;;;;;;;;;5015847;28;20050;-81
2021/10/17 01:48:31;;;;;;;0.20;0.20;;;;;;;;;;5015942;28;20466;-80
2021/10/17 01:50:56;;;;;;;1.95;1.05;;;;;;;;;;5015660;28;20088;-81
2021/10/17 01:53:22;;;;;;;1.55;1.45;;;;;;;;;;5015308;28;20030;-80
2021/10/17 01:55:47;;;;;;;1.10;1.02;;;;;;;;;;5015548;28;20042;-81
2021/10/17 01:58:12;;;;;;;3.25;2.95;;;;;;;;;;5015725;28;20037;-80
2021/10/17 02:00:37;;;;;;;0.63;0.63;;;;;;;;;;5015404;28;20021;-80
2021/10/17 02:03:03;;;;;;;1.42;1.33;;;;;;;;;;5015296;28;20026;-80
2021/10/17 02:05:28;;;;;;;0.55;0.55;;;;;;;;;;5015070;28;20338;-80
2021/10/17 02:07:53;;;;;;;0.60;0.60;;;;;;;;;;5015254;28;20022;-80
2021/10/17 02:10:18;;;;;;;0.70;0.70;;;;;;;;;;5015206;28;20081;-80
2021/10/17 02:12:44;;;;;;;1.52;0.80;;;;;;;;;;4997867;28;20092;-80
2021/10/17 02:15:09;;;;;;;0.35;0.20;;;;;;;;;;5015047;28;20025;-80
2021/10/17 02:17:35;;;;;;;0.50;0.50;;;;;;;;;;5015284;28;20033;-80
2021/10/17 02:20:00;;;;;;;0.32;0.32;;;;;;;;;;5014800;28;20049;-80
2021/10/17 02:22:25;;;;;;;6.65;1.65;;;;;;;;;;5015485;28;20076;-80
2021/10/17 02:24:51;;;;;;;1.58;0.73;;;;;;;;;;5015114;28;20037;-80
2021/10/17 02:27:16;;;;;;;0.30;0.30;;;;;;;;;;5015102;28;20038;-80
2021/10/17 02:29:41;;;;;;;0.22;0.22;;;;;;;;;;5014922;28;20068;-80
2021/10/17 02:32:06;;;;;;;4.00;2.47;;;;;;;;;;5014710;28;20458;-81
2021/10/17 02:34:32;;;;;;;0.60;0.60;;;;;;;;;;5014652;28;20390;-80
2021/10/17 02:36:58;;;;;;;0.57;0.57;;;;;;;;;;5014955;28;20021;-80
2021/10/17 02:39:23;;;;;;;1.58;1.50;;;;;;;;;;5014973;28;20432;-80
2021/10/17 02:41:48;;;;;;;0.25;0.25;;;;;;;;;;5014786;28;20435;-80
2021/10/17 02:44:14;;;;;;;0.25;0.25;;;;;;;;;;5014903;28;20030;-80
2021/10/17 02:46:39;;;;;;;1.20;1.10;;;;;;;;;;5014116;28;20041;-80
2021/10/17 02:49:04;;;;;;;0.20;0.20;;;;;;;;;;5014858;28;20452;-80
2021/10/17 02:51:29;;;;;;;0.88;0.88;;;;;;;;;;5014663;28;20048;-80
2021/10/17 02:53:55;;;;;;;1.63;1.52;;;;;;;;;;5014253;28;20033;-80
2021/10/17 02:56:20;;;;;;;0.98;0.98;;;;;;;;;;5014485;28;20041;-80
2021/10/17 02:58:46;;;;;;;0.50;0.50;;;;;;;;;;5014253;28;20095;-80
2021/10/17 03:01:11;;;;;;;0.55;0.55;;;;;;;;;;5014411;28;20030;-81
2021/10/17 03:03:36;;;;;;;0.57;0.57;;;;;;;;;;5014480;28;20030;-81
2021/10/17 03:06:02;;;;;;;0.70;0.70;;;;;;;;;;5014456;28;20024;-81
2021/10/17 03:08:27;;;;;;;1.27;1.17;;;;;;;;;;5014292;28;20527;-81
2021/10/17 03:10:52;;;;;;;1.38;1.27;;;;;;;;;;5013785;28;20046;-81
2021/10/17 03:13:18;;;;;;;0.60;0.60;;;;;;;;;;5014330;28;20029;-80
2021/10/17 03:15:43;;;;;;;0.50;0.50;;;;;;;;;;5013896;28;20105;-81
2021/10/17 03:18:08;;;;;;;1.15;1.05;;;;;;;;;;5013199;28;20041;-80
2021/10/17 03:20:33;;;;;;;0.68;0.68;;;;;;;;;;5014144;28;20029;-81
2021/10/17 03:22:59;;;;;;;0.10;0.10;;;;;;;;;;5014145;28;20526;-80
2021/10/17 03:25:24;;;;;;;1.50;1.40;;;;;;;;;;5013984;28;20038;-80
2021/10/17 03:27:49;;;;;;;0.10;0.10;;;;;;;;;;5014105;28;20022;-80
2021/10/17 03:30:14;;;;;;;0.75;0.75;;;;;;;;;;5013868;28;20496;-80
2021/10/17 03:32:40;;;;;;;0.30;0.30;;;;;;;;;;5013963;28;20061;-80
2021/10/17 03:35:05;;;;;;;1.40;1.33;;;;;;;;;;5013937;28;20347;-80
2021/10/17 03:37:31;;;;;;;0.65;0.65;;;;;;;;;;5013979;28;20113;-81
2021/10/17 03:39:57;;;;;;;0.45;0.45;;;;;;;;;;5013621;28;20045;-80
2021/10/17 03:42:22;;;;;;;1.20;1.10;;;;;;;;;;5013944;28;20037;-80
2021/10/17 03:44:47;;;;;;;0.25;0.25;;;;;;;;;;5013449;28;20030;-80
2021/10/17 03:47:13;;;;;;;0.73;0.73;;;;;;;;;;5013834;28;20056;-80
2021/10/17 03:49:39;;;;;;;0.13;0.13;;;;;;;;;;5013275;28;20040;-80
2021/10/17 03:52:04;;;;;;;0.20;0.20;;;;;;;;;;5013560;28;20030;-83
2021/10/17 03:54:29;;;;;;;0.00;0.00;;;;;;;;;;5013383;28;20080;-80
2021/10/17 03:56:55;;;;;;;1.10;0.98;;;;;;;;;;5013404;28;20014;-81
2021/10/17 03:59:20;;;;;;;0.60;0.60;;;;;;;;;;5013211;28;20085;-80
2021/10/17 04:01:46;;;;;;;0.98;0.95;;;;;;;;;;5013381;28;20165;-80
2021/10/17 04:04:11;;;;;;;2.28;1.08;;;;;;;;;;5013355;28;20017;-80
2021/10/17 04:06:37;;;;;;;0.77;0.77;;;;;;;;;;5013569;28;20034;-81
2021/10/17 04:09:02;;;;;;;1.30;1.08;;;;;;;;;;5013336;28;20037;-80
2021/10/17 04:11:27;;;;;;;0.13;0.13;;;;;;;;;;5013084;28;20121;-81
2021/10/17 04:13:52;;;;;;;0.98;0.95;;;;;;;;;;5013301;28;20049;-80
2021/10/17 04:16:18;;;;;;;2.80;1.55;;;;;;;;;;5013191;28;20053;-80
2021/10/17 04:18:43;;;;;;;0.75;0.75;;;;;;;;;;5013243;28;20033;-80
2021/10/17 04:21:09;;;;;;;0.65;0.65;;;;;;;;;;5012732;28;20030;-80
2021/10/17 04:23:34;;;;;;;0.75;0.75;;;;;;;;;;5013135;28;20041;-80
2021/10/17 04:25:59;;;;;;;1.30;1.08;;;;;;;;;;5012995;28;20026;-80
2021/10/17 04:28:24;;;;;;;2.30;1.42;;;;;;;;;;5012763;28;20030;-80
2021/10/17 04:30:50;;;;;;;1.02;0.93;;;;;;;;;;5012619;28;20399;-80
2021/10/17 04:33:15;;;;;;;1.60;1.50;;;;;;;;;;5013109;28;20026;-80
2021/10/17 04:35:40;;;;;;;0.43;0.43;;;;;;;;;;5012910;28;20022;-80
2021/10/17 04:38:06;;;;;;;1.38;1.27;;;;;;;;;;4995429;28;20450;-81
2021/10/17 04:40:32;;;;;;;0.95;0.95;;;;;;;;;;5013294;28;20018;-80
2021/10/17 04:42:58;;;;;;;0.28;0.28;;;;;;;;;;5012784;28;20466;-81
2021/10/17 04:45:23;;;;;;;1.25;1.15;;;;;;;;;;5012411;28;20052;-80
2021/10/17 04:47:48;;;;;;;0.70;0.70;;;;;;;;;;5012800;28;20025;-80
2021/10/17 04:50:13;;;;;;;3.53;2.42;;;;;;;;;;5012818;28;20042;-80
2021/10/17 04:52:39;;;;;;;0.50;0.50;;;;;;;;;;5012782;28;20096;-82
2021/10/17 04:55:07;;;;;;;1.05;0.77;;;;;;;;;;5012784;28;20466;-82
2021/10/17 04:57:33;;;;;;;1.10;0.80;;;;;;;;;;5012909;28;20033;-80
2021/10/17 04:59:58;;;;;;;1.02;1.00;;;;;;;;;;5012792;28;20527;-80
2021/10/17 05:02:23;;;;;;;1.08;1.00;;;;;;;;;;5012976;28;20041;-80
2021/10/17 05:04:48;;;;;;;0.60;0.60;;;;;;;;;;5012817;28;20030;-81
2021/10/17 05:07:14;;;;;;;1.90;1.80;;;;;;;;;;5012605;28;20482;-80
2021/10/17 05:09:39;;;;;;;0.20;0.20;;;;;;;;;;5012657;28;20026;-81
2021/10/17 05:12:04;;;;;;;4.22;1.60;;;;;;;;;;5012755;28;20145;-80
2021/10/17 05:14:30;;;;;;;2.85;2.65;;;;;;;;;;5012825;28;20589;-81
2021/10/17 05:16:55;;;;;;;1.55;1.00;;;;;;;;;;5012494;28;20378;-80
2021/10/17 05:19:20;;;;;;;0.22;0.22;;;;;;;;;;4994784;28;20068;-81
2021/10/17 05:21:46;;;;;;;0.57;0.57;;;;;;;;;;5012792;28;20474;-81
2021/10/17 05:24:11;;;;;;;0.25;0.25;;;;;;;;;;5012527;28;20014;-81
2021/10/17 05:26:37;;;;;;;2.47;2.28;;;;;;;;;;5012719;28;20080;-80
2021/10/17 05:29:02;;;;;;;1.70;1.58;;;;;;;;;;5012553;28;20069;-81
2021/10/17 05:31:27;;;;;;;1.15;1.15;;;;;;;;;;4994850;28;20030;-80
2021/10/17 05:33:53;;;;;;;0.75;0.75;;;;;;;;;;5012414;28;20105;-81
2021/10/17 05:36:18;;;;;;;0.85;0.73;;;;;;;;;;5012506;28;20037;-81
2021/10/17 05:38:43;;;;;;;1.33;1.05;;;;;;;;;;5012313;28;20112;-81
2021/10/17 05:41:08;;;;;;;2.08;1.98;;;;;;;;;;4996869;28;20033;-81
2021/10/17 05:43:34;;;;;;;1.48;1.35;;;;;;;;;;5015951;28;20092;-81
2021/10/17 05:46:00;;;;;;;2.90;2.50;;;;;;;;;;5015701;28;20038;-80
2021/10/17 05:48:25;;;;;;;4.32;1.83;;;;;;;;;;5015887;28;20034;-81
2021/10/17 05:50:50;;;;;;;2.20;1.55;;;;;;;;;;5015712;28;20038;-81
2021/10/17 05:53:15;;;;;;;0.73;0.73;;;;;;;;;;5015669;28;20025;-81
2021/10/17 05:55:41;;;;;;;0.73;0.73;;;;;;;;;;5015708;28;20083;-81
2021/10/17 05:58:06;;;;;;;1.75;1.33;;;;;;;;;;5015649;28;20474;-81
2021/10/17 06:00:32;;;;;;;1.23;1.10;;;;;;;;;;5015355;28;20044;-81
2021/10/17 06:02:57;;;;;;;10.45;4.53;;;;;;;;;;5015518;28;20025;-81
2021/10/17 06:05:22;;;;;;;1.48;1.17;;;;;;;;;;5015599;28;20038;-81
2021/10/17 06:07:47;;;;;;;1.88;1.77;;;;;;;;;;5015432;28;20021;-81
2021/10/17 06:10:13;;;;;;;1.90;1.80;;;;;;;;;;5014987;28;20449;-83
2021/10/17 06:12:40;;;;;;;1.88;1.58;;;;;;;;;;5015476;28;20076;-81
2021/10/17 06:15:06;;;;;;;2.38;1.92;;;;;;;;;;5015422;28;20017;-81
2021/10/17 06:17:32;;;;;;;1.70;1.60;;;;;;;;;;5015621;28;20030;-81
2021/10/17 06:19:57;;;;;;;0.85;0.85;;;;;;;;;;5015345;28;20084;-81
2021/10/17 06:22:22;;;;;;;0.38;0.38;;;;;;;;;;5014621;28;20060;-81
2021/10/17 06:24:48;;;;;;;1.42;0.90;;;;;;;;;;5015178;28;20033;-82
2021/10/17 06:27:13;;;;;;;0.70;0.70;;;;;;;;;;5014921;28;20477;-82
2021/10/17 06:29:38;;;;;;;2.25;1.60;;;;;;;;;;5015354;28;20022;-80
2021/10/17 06:32:04;;;;;;;0.68;0.65;;;;;;;;;;5014593;28;20034;-83
2021/10/17 06:34:29;;;;;;;1.08;1.05;;;;;;;;;;5015166;28;20034;-84
2021/10/17 06:36:54;;;;;;;2.88;1.95;;;;;;;;;;5015213;28;20029;-83
2021/10/17 06:39:20;;;;;;;0.75;0.75;;;;;;;;;;5015090;28;20034;-84
2021/10/17 06:41:45;;;;;;;0.68;0.68;;;;;;;;;;5014726;28;20030;-83
2021/10/17 06:44:10;;;;;;;2.58;2.38;;;;;;;;;;5015101;28;20021;-81
2021/10/17 06:46:35;;;;;;;3.22;0.80;;;;;;;;;;5014833;28;20045;-81
2021/10/17 06:49:01;;;;;;;0.82;0.82;;;;;;;;;;5014801;28;20030;-83
2021/10/17 06:51:26;;;;;;;1.83;1.73;;;;;;;;;;4996092;28;20045;-82
2021/10/17 06:53:51;;;;;;;1.08;0.98;;;;;;;;;;4996807;28;20124;-84
2021/10/17 06:56:16;;;;;;;0.82;0.80;;;;;;;;;;5014647;28;20069;-83
2021/10/17 06:58:42;;;;;;;0.63;0.63;;;;;;;;;;5014592;28;20017;-84
2021/10/17 07:01:07;;;;;;;1.50;1.40;;;;;;;;;;5014418;28;20072;-84
2021/10/17 07:03:33;;;;;;;0.40;0.40;;;;;;;;;;5014377;28;20030;-84
2021/10/17 07:05:58;;;;;;;3.33;2.15;;;;;;;;;;5014263;28;20037;-85
2021/10/17 07:08:23;;;;;;;2.78;2.20;;;;;;;;;;5014437;28;20026;-83
2021/10/17 07:10:49;;;;;;;0.40;0.40;;;;;;;;;;5014083;28;20088;-83
2021/10/17 07:13:14;;;;;;;1.52;1.25;;;;;;;;;;5014245;28;20021;-83
2021/10/17 07:15:40;;;;;;;3.10;1.40;;;;;;;;;;5014223;28;20026;-84
2021/10/17 07:18:05;;;;;;;3.28;2.22;;;;;;;;;;5014232;28;20433;-84
2021/10/17 07:20:30;;;;;;;1.17;0.82;;;;;;;;;;5013989;28;20109;-84
2021/10/17 07:22:56;;;;;;;1.17;1.08;;;;;;;;;;5014166;28;20433;-84
2021/10/17 07:25:22;;;;;;;1.27;1.17;;;;;;;;;;5014083;28;20033;-83
2021/10/17 07:27:47;;;;;;;1.50;1.40;;;;;;;;;;5014076;28;20472;-84
2021/10/17 07:30:12;;;;;;;1.13;1.05;;;;;;;;;;5013862;28;20486;-84
2021/10/17 07:32:38;;;;;;;2.25;2.10;;;;;;;;;;5014242;28;20105;-84
2021/10/17 07:35:03;;;;;;;1.38;1.27;;;;;;;;;;5013719;28;20028;-84
2021/10/17 07:37:28;;;;;;;2.17;1.98;;;;;;;;;;5013807;28;20351;-84
2021/10/17 07:39:54;;;;;;;2.58;2.03;;;;;;;;;;5013967;28;20033;-84
2021/10/17 07:42:19;;;;;;;1.00;1.00;;;;;;;;;;5010916;28;20026;-84
2021/10/17 07:44:44;;;;;;;1.95;1.70;;;;;;;;;;5012487;28;20057;-82
2021/10/17 07:47:09;;;;;;;1.67;1.58;;;;;;;;;;5013519;28;20045;-84
2021/10/17 07:49:35;;;;;;;0.77;0.77;;;;;;;;;;5014080;28;20033;-83
2021/10/17 07:52:00;;;;;;;1.63;1.52;;;;;;;;;;5013523;28;20034;-83
2021/10/17 07:54:25;;;;;;;1.75;1.65;;;;;;;;;;5014026;28;20036;-83
2021/10/17 07:56:50;;;;;;;1.45;1.35;;;;;;;;;;5013397;28;20466;-84
2021/10/17 07:59:16;;;;;;;1.50;1.40;;;;;;;;;;5013446;28;20036;-83
2021/10/17 08:01:41;;;;;;;1.13;1.08;;;;;;;;;;5013485;28;20038;-84
2021/10/17 08:04:06;;;;;;;4.25;3.00;;;;;;;;;;5013160;28;20029;-83
2021/10/17 08:06:32;;;;;;;2.42;1.80;;;;;;;;;;5013150;28;20040;-83
2021/10/17 08:08:57;;;;;;;0.60;0.60;;;;;;;;;;5013468;28;20120;-84
2021/10/17 08:11:22;;;;;;;1.52;1.42;;;;;;;;;;5013253;28;20030;-85
2021/10/17 08:13:48;;;;;;;1.70;1.40;;;;;;;;;;5013012;28;20125;-85
2021/10/17 08:16:13;;;;;;;2.35;1.98;;;;;;;;;;5012825;28;20448;-85
2021/10/17 08:18:38;;;;;;;1.35;1.27;;;;;;;;;;5012973;28;20025;-86
2021/10/17 08:21:04;;;;;;;1.75;1.52;;;;;;;;;;5013067;28;20397;-85
2021/10/17 08:23:29;;;;;;;1.60;1.50;;;;;;;;;;5012735;28;20394;-85
2021/10/17 08:25:54;;;;;;;2.55;2.35;;;;;;;;;;5012750;28;20029;-85
2021/10/17 08:28:20;;;;;;;2.35;1.55;;;;;;;;;;5013098;28;20462;-86
2021/10/17 08:30:48;;;;;;;1.83;1.73;;;;;;;;;;5012644;28;20124;-84
2021/10/17 08:33:13;;;;;;;1.52;1.42;;;;;;;;;;5004688;28;20072;-85
2021/10/17 08:35:38;;;;;;;1.90;1.75;;;;;;;;;;5011889;28;20029;-85
2021/10/17 08:38:04;;;;;;;0.57;0.57;;;;;;;;;;5012025;28;20401;-85
2021/10/17 08:40:29;;;;;;;2.22;1.63;;;;;;;;;;5012057;28;20125;-85
2021/10/17 08:42:54;;;;;;;5.35;2.90;;;;;;;;;;5011485;28;20386;-85
2021/10/17 08:45:19;;;;;;;1.35;1.25;;;;;;;;;;5011815;28;20065;-86
2021/10/17 08:47:46;;;;;;;2.30;1.42;;;;;;;;;;5027529;28;20026;-86
2021/10/17 08:50:14;;;;;;;1.00;0.98;;;;;;;;;;5012609;28;20428;-85
2021/10/17 08:52:39;;;;;;;1.67;1.23;;;;;;;;;;5011524;28;20030;-87
2021/10/17 08:55:06;;;;;;;14.35;2.05;;;;;;;;;;5011697;28;20022;-86
2021/10/17 08:57:31;;;;;;;1.75;1.65;;;;;;;;;;5010803;28;20030;-86
2021/10/17 08:59:57;;;;;;;5.63;2.28;;;;;;;;;;5011362;28;20030;-85
2021/10/17 09:02:23;;;;;;;1.25;1.15;;;;;;;;;;5008398;28;20018;-85
2021/10/17 09:05:07;;;;;;;1.10;1.08;;;;;;;;;;5009123;28;20033;-84
2021/10/17 09:07:33;;;;;;;6.07;2.60;;;;;;;;;;5010712;28;20053;-85
2021/10/17 09:10:06;;;;;;;3.65;2.63;;;;;;;;;;5010823;28;20076;-85
2021/10/17 09:12:31;;;;;;;1.02;1.02;;;;;;;;;;5006416;28;20038;-84
2021/10/17 09:15:15;;;;;;;1.65;1.00;;;;;;;;;;5011678;28;20028;-85
2021/10/17 09:18:00;;;;;;;3.35;1.70;;;;;;;;;;5015612;28;20108;-85
2021/10/17 09:20:26;;;;;;;0.55;0.55;;;;;;;;;;5015502;28;20038;-85
2021/10/17 09:22:51;;;;;;;1.08;1.08;;;;;;;;;;5015556;28;20044;-84
2021/10/17 09:25:28;;;;;;;1.73;1.48;;;;;;;;;;4995689;28;20402;-85
2021/10/17 09:27:53;;;;;;;1.45;1.33;;;;;;;;;;4996196;28;20058;-85
2021/10/17 09:30:18;;;;;;;2.35;1.77;;;;;;;;;;4996129;28;20084;-85
2021/10/17 09:32:43;;;;;;;4.20;2.05;;;;;;;;;;4995949;28;20026;-85
2021/10/17 09:35:09;;;;;;;3.55;2.03;;;;;;;;;;4995805;28;20030;-85
2021/10/17 09:37:39;;;;;;;0.68;0.55;;;;;;;;;;4995102;28;20121;-86
2021/10/17 09:40:09;;;;;;;2.13;1.13;;;;;;;;;;4996021;28;20072;-85
2021/10/17 09:42:41;;;;;;;1.40;1.30;;;;;;;;;;4995859;28;20084;-85
2021/10/17 09:45:20;;;;;;;1.15;1.05;;;;;;;;;;4995213;28;20058;-85
2021/10/17 09:47:46;;;;;;;0.65;0.65;;;;;;;;;;4996940;28;20041;-85
2021/10/17 09:50:12;;;;;;;5.38;1.73;;;;;;;;;;5014989;28;20041;-85
2021/10/17 09:52:38;;;;;;;1.00;0.93;;;;;;;;;;5015814;28;20373;-85
2021/10/17 09:55:07;;;;;;;1.75;1.63;;;;;;;;;;5014884;28;20034;-85
2021/10/17 09:57:32;;;;;;;1.02;0.88;;;;;;;;;;5015268;28;20037;-85
2021/10/17 09:59:57;;;;;;;1.20;1.17;;;;;;;;;;5015102;28;20091;-85
2021/10/17 10:02:24;;;;;;;2.00;1.80;;;;;;;;;;5015247;28;20041;-85
2021/10/17 10:04:50;;;;;;;2.83;2.13;;;;;;;;;;5015516;28;20030;-85
2021/10/17 10:07:21;;;;;;;1.73;1.48;;;;;;;;;;5009829;28;20029;-86
2021/10/17 10:09:47;;;;;;;0.65;0.65;;;;;;;;;;4997461;28;20029;-86
2021/10/17 10:12:13;;;;;;;3.28;2.05;;;;;;;;;;5013471;28;20503;-86
2021/10/17 10:14:40;;;;;;;7.85;1.95;;;;;;;;;;5013790;28;20022;-85
2021/10/17 10:17:05;;;;;;;1.05;0.98;;;;;;;;;;5013706;28;20034;-85
2021/10/17 10:19:31;;;;;;;2.08;1.80;;;;;;;;;;5013992;28;20030;-85
2021/10/17 10:21:57;;;;;;;3.65;2.78;;;;;;;;;;5013058;28;20033;-85
2021/10/17 10:24:22;;;;;;;1.00;0.98;;;;;;;;;;5014405;28;20022;-85
2021/10/17 10:26:52;;;;;;;0.98;0.80;;;;;;;;;;5008336;28;20458;-86
2021/10/17 10:29:24;;;;;;;0.95;0.95;;;;;;;;;;5014367;28;20014;-84
2021/10/17 10:31:51;;;;;;;0.88;0.88;;;;;;;;;;5014422;28;20042;-84
2021/10/17 10:34:22;;;;;;;11.57;1.60;;;;;;;;;;5014587;28;20172;-85
2021/10/17 10:36:48;;;;;;;1.77;1.40;;;;;;;;;;5014882;28;20096;-85
2021/10/17 10:39:16;;;;;;;1.13;1.02;;;;;;;;;;5014306;28;20109;-85
2021/10/17 10:41:53;;;;;;;1.33;1.20;;;;;;;;;;5013843;28;20108;-85
2021/10/17 10:44:49;;;;;;;1.45;1.35;;;;;;;;;;5014730;28;20030;-85
2021/10/17 10:47:22;;;;;;;3.00;1.10;;;;;;;;;;5005918;28;20049;-85
2021/10/17 10:49:48;;;;;;;0.30;0.30;;;;;;;;;;5014697;28;20072;-85
2021/10/17 10:52:25;;;;;;;2.08;1.17;;;;;;;;;;5014500;28;20033;-84
2021/10/17 10:54:51;;;;;;;1.50;1.05;;;;;;;;;;5014806;28;20112;-85
2021/10/17 10:57:20;;;;;;;1.08;1.02;;;;;;;;;;5014471;28;20088;-85
2021/10/17 11:00:04;;;;;;;0.47;0.45;;;;;;;;;;5014458;28;20018;-85
2021/10/17 11:02:29;;;;;;;1.70;1.13;;;;;;;;;;5014447;28;20030;-85
2021/10/17 11:04:59;;;;;;;1.63;1.52;;;;;;;;;;5014164;28;20556;-84
2021/10/17 11:07:27;;;;;;;2.20;1.45;;;;;;;;;;5014302;28;20021;-84
2021/10/17 11:09:54;;;;;;;1.10;1.00;;;;;;;;;;5014052;28;20486;-84
2021/10/17 11:12:37;;;;;;;1.67;1.17;;;;;;;;;;5016176;28;20065;-86
2021/10/17 11:15:03;;;;;;;1.67;1.52;;;;;;;;;;5028284;28;20397;-85
2021/10/17 11:17:29;;;;;;;1.65;0.77;;;;;;;;;;5014638;28;20037;-85
2021/10/17 11:19:54;;;;;;;0.93;0.82;;;;;;;;;;5001463;28;20076;-84
2021/10/17 11:22:19;;;;;;;0.10;0.10;;;;;;;;;;4999864;28;20036;-84
2021/10/17 11:24:45;;;;;;;1.05;0.98;;;;;;;;;;5007046;28;20099;-85
2021/10/17 11:27:11;;;;;;;0.52;0.47;;;;;;;;;;5011450;28;20018;-84
2021/10/17 11:29:40;;;;;;;2.35;1.42;;;;;;;;;;4999855;28;20026;-84
2021/10/17 11:32:06;;;;;;;2.10;1.05;;;;;;;;;;4997070;28;20045;-84
2021/10/17 11:34:32;;;;;;;0.75;0.63;;;;;;;;;;4994633;28;20068;-84
2021/10/17 11:37:16;;;;;;;1.20;0.77;;;;;;;;;;4994444;28;20109;-84
2021/10/17 11:39:57;;;;;;;1.17;1.08;;;;;;;;;;4994275;28;20034;-84
2021/10/17 11:42:26;;;;;;;0.65;0.65;;;;;;;;;;4994184;28;20387;-84
2021/10/17 11:44:51;;;;;;;1.45;1.17;;;;;;;;;;4994935;28;20043;-83
2021/10/17 11:47:18;;;;;;;0.63;0.63;;;;;;;;;;5013873;28;20374;-84
2021/10/17 11:49:43;;;;;;;0.20;0.20;;;;;;;;;;5013041;28;20041;-84
2021/10/17 11:52:12;;;;;;;0.50;0.50;;;;;;;;;;5013764;28;20038;-84
2021/10/17 11:54:43;;;;;;;1.48;1.13;;;;;;;;;;5013573;28;20473;-84
2021/10/17 11:57:09;;;;;;;0.47;0.47;;;;;;;;;;5013363;28;20108;-84
2021/10/17 11:59:34;;;;;;;2.72;1.23;;;;;;;;;;5014105;28;20184;-83
2021/10/17 12:01:59;;;;;;;2.28;1.13;;;;;;;;;;5014099;28;20385;-83
2021/10/17 12:04:40;;;;;;;1.45;1.35;;;;;;;;;;5009518;28;20023;-83
2021/10/17 12:07:06;;;;;;;1.13;1.02;;;;;;;;;;5002446;28;20048;-84
2021/10/17 12:09:33;;;;;;;0.85;0.82;;;;;;;;;;4999711;28;20467;-83
2021/10/17 12:11:59;;;;;;;1.27;1.17;;;;;;;;;;5002899;28;20125;-83
2021/10/17 12:14:25;;;;;;;0.75;0.63;;;;;;;;;;4998647;28;20495;-84
2021/10/17 12:16:54;;;;;;;3.03;0.95;;;;;;;;;;4994203;28;20394;-83
2021/10/17 12:19:24;;;;;;;0.77;0.63;;;;;;;;;;4994419;28;20147;-84
2021/10/17 12:21:49;;;;;;;0.43;0.30;;;;;;;;;;4996604;28;20085;-84
2021/10/17 12:24:14;;;;;;;1.08;0.93;;;;;;;;;;4994270;28;20470;-82
2021/10/17 12:26:48;;;;;;;0.43;0.43;;;;;;;;;;4994138;28;20031;-82
2021/10/17 12:29:15;;;;;;;0.28;0.28;;;;;;;;;;4994223;28;20014;-82
2021/10/17 12:31:44;;;;;;;0.98;0.85;;;;;;;;;;4994041;28;20049;-82
2021/10/17 12:34:10;;;;;;;1.08;0.43;;;;;;;;;;4994036;28;20092;-82
2021/10/17 12:36:36;;;;;;;0.30;0.30;;;;;;;;;;5011363;28;20029;-83
2021/10/17 12:39:03;;;;;;;1.33;1.25;;;;;;;;;;5013430;28;20470;-82
2021/10/17 12:41:29;;;;;;;1.90;1.33;;;;;;;;;;5013639;28;20034;-83
2021/10/17 12:43:57;;;;;;;0.65;0.65;;;;;;;;;;5013321;28;20022;-83
2021/10/17 12:46:23;;;;;;;3.95;0.77;;;;;;;;;;5013796;28;20103;-83
2021/10/17 12:48:49;;;;;;;0.22;0.22;;;;;;;;;;5012341;28;20034;-82
2021/10/17 12:51:37;;;;;;;1.20;1.10;;;;;;;;;;5016524;28;20034;-83
2021/10/17 12:54:06;;;;;;;1.95;0.77;;;;;;;;;;4990895;28;20046;-82
2021/10/17 12:56:31;;;;;;;1.20;0.98;;;;;;;;;;4997641;28;20504;-83
2021/10/17 12:59:05;;;;;;;1.33;1.23;;;;;;;;;;4997916;28;20105;-82
2021/10/17 13:01:31;;;;;;;1.60;1.07;;;;;;;;;;4997892;28;20026;-82
2021/10/17 13:04:12;;;;;;;0.98;0.73;;;;;;;;;;4997942;28;20046;-82
2021/10/17 13:06:50;;;;;;;8.20;0.55;;;;;;;;;;4997769;28;20478;-82
2021/10/17 13:09:15;;;;;;;2.45;0.95;;;;;;;;;;4997720;28;20038;-82
2021/10/17 13:11:41;;;;;;;0.77;0.60;;;;;;;;;;4997564;28;20054;-82
2021/10/17 13:14:09;;;;;;;0.60;0.60;;;;;;;;;;4997645;28;20032;-82
2021/10/17 13:16:39;;;;;;;1.38;0.55;;;;;;;;;;4997592;28;20101;-82
2021/10/17 13:19:04;;;;;;;0.32;0.32;;;;;;;;;;4997503;28;20035;-82
2021/10/17 13:21:30;;;;;;;1.58;0.90;;;;;;;;;;4997481;28;20030;-82
2021/10/17 13:23:55;;;;;;;1.15;0.70;;;;;;;;;;5010532;28;20026;-82
2021/10/17 13:26:20;;;;;;;2.00;1.38;;;;;;;;;;5012711;28;20030;-83
2021/10/17 13:28:45;;;;;;;0.38;0.38;;;;;;;;;;4997028;28;20484;-82
2021/10/17 13:31:11;;;;;;;1.33;1.23;;;;;;;;;;5013403;28;20466;-82
2021/10/17 13:33:36;;;;;;;1.33;1.15;;;;;;;;;;5007955;28;20442;-82
2021/10/17 13:36:01;;;;;;;0.13;0.13;;;;;;;;;;4999474;28;20042;-82
2021/10/17 13:38:27;;;;;;;1.45;1.05;;;;;;;;;;4995919;28;20113;-82
2021/10/17 13:40:52;;;;;;;3.40;1.10;;;;;;;;;;4997359;28;20088;-82
2021/10/17 13:43:18;;;;;;;1.63;0.80;;;;;;;;;;4996938;28;20117;-81
2021/10/17 13:45:43;;;;;;;1.00;0.93;;;;;;;;;;5005185;28;20528;-81
2021/10/17 13:48:09;;;;;;;1.85;1.27;;;;;;;;;;5016265;28;20026;-81
2021/10/17 13:50:34;;;;;;;0.60;0.60;;;;;;;;;;5016223;28;20046;-81
2021/10/17 13:52:59;;;;;;;2.33;1.77;;;;;;;;;;5016358;28;20052;-81
2021/10/17 13:55:25;;;;;;;1.77;1.67;;;;;;;;;;5016281;28;20030;-81
2021/10/17 13:57:50;;;;;;;3.47;0.98;;;;;;;;;;5016138;28;20033;-82
2021/10/17 14:00:23;;;;;;;0.57;0.57;;;;;;;;;;5016471;28;20022;-82
2021/10/17 14:02:48;;;;;;;1.20;1.10;;;;;;;;;;5015452;28;20474;-81
2021/10/17 14:05:14;;;;;;;0.45;0.45;;;;;;;;;;5015947;28;20092;-81
2021/10/17 14:07:39;;;;;;;1.23;0.98;;;;;;;;;;5016120;28;20018;-81
2021/10/17 14:10:05;;;;;;;0.90;0.90;;;;;;;;;;5015623;28;20593;-82
2021/10/17 14:12:30;;;;;;;0.32;0.32;;;;;;;;;;5009414;28;20092;-82
2021/10/17 14:14:55;;;;;;;1.67;0.65;;;;;;;;;;5015917;28;20533;-81
2021/10/17 14:17:20;;;;;;;0.68;0.68;;;;;;;;;;5015204;28;20034;-81
2021/10/17 14:19:46;;;;;;;2.20;1.00;;;;;;;;;;5015620;28;20033;-81
2021/10/17 14:22:11;;;;;;;1.30;1.00;;;;;;;;;;5015627;28;20030;-81
2021/10/17 14:24:38;;;;;;;0.90;0.90;;;;;;;;;;5015690;28;20036;-81
2021/10/17 14:27:03;;;;;;;1.65;1.17;;;;;;;;;;5015900;28;20045;-81
2021/10/17 14:29:29;;;;;;;0.47;0.38;;;;;;;;;;5015358;28;20022;-82
2021/10/17 14:31:54;;;;;;;1.00;0.90;;;;;;;;;;5015579;28;20157;-81
2021/10/17 14:34:19;;;;;;;1.20;1.10;;;;;;;;;;5015595;28;20057;-83
2021/10/17 14:36:45;;;;;;;1.20;1.10;;;;;;;;;;5012074;28;20100;-81
2021/10/17 14:39:10;;;;;;;0.50;0.50;;;;;;;;;;5015522;28;20037;-81